sensor_id;sensor_type;location;lat;lon;timestamp;P1;durP1;ratioP1;P2;durP2;ratioP2
72573;SDS011;60603;52.548;13.420;2023-06-14T00:01:54;5.55;;;2.20;;
72573;SDS011;60603;52.548;13.420;2023-06-14T00:04:20;5.22;;;2.70;;
72573;SDS011;60603;52.548;13.420;2023-06-14T00:06:47;5.50;;;2.92;;
72573;SDS011;60603;52.548;13.420;2023-06-14T00:09:15;7.28;;;3.08;;
72573;SDS011;60603;52.548;13.420;2023-06-14T00:11:43;6.13;;;2.80;;
72573;SDS011;60603;52.548;13.420;2023-06-14T00:14:09;6.35;;;2.60;;
72573;SDS011;60603;52.548;13.420;2023-06-14T00:16:35;7.05;;;3.22;;
72573;SDS011;60603;52.548;13.420;2023-06-14T00:19:02;5.63;;;2.80;;
72573;SDS011;60603;52.548;13.420;2023-06-14T00:21:31;6.78;;;3.15;;
72573;SDS011;60603;52.548;13.420;2023-06-14T00:24:00;5.93;;;3.00;;
72573;SDS011;60603;52.548;13.420;2023-06-14T00:26:26;7.55;;;2.95;;
72573;SDS011;60603;52.548;13.420;2023-06-14T00:28:52;6.22;;;3.13;;
72573;SDS011;60603;52.548;13.420;2023-06-14T00:31:18;6.63;;;2.75;;
72573;SDS011;60603;52.548;13.420;2023-06-14T00:33:44;9.13;;;3.38;;
72573;SDS011;60603;52.548;13.420;2023-06-14T00:36:10;6.30;;;3.22;;
72573;SDS011;60603;52.548;13.420;2023-06-14T00:38:36;5.85;;;2.78;;
72573;SDS011;60603;52.548;13.420;2023-06-14T00:41:01;7.30;;;2.92;;
72573;SDS011;60603;52.548;13.420;2023-06-14T00:43:27;7.40;;;3.10;;
72573;SDS011;60603;52.548;13.420;2023-06-14T00:45:53;5.47;;;2.63;;
72573;SDS011;60603;52.548;13.420;2023-06-14T00:48:18;5.55;;;2.72;;
72573;SDS011;60603;52.548;13.420;2023-06-14T00:50:45;7.32;;;2.70;;
72573;SDS011;60603;52.548;13.420;2023-06-14T00:53:11;6.95;;;3.17;;
72573;SDS011;60603;52.548;13.420;2023-06-14T00:55:40;5.55;;;2.92;;
72573;SDS011;60603;52.548;13.420;2023-06-14T00:58:06;6.53;;;2.97;;
72573;SDS011;60603;52.548;13.420;2023-06-14T01:00:33;5.95;;;2.78;;
72573;SDS011;60603;52.548;13.420;2023-06-14T01:02:58;5.70;;;2.92;;
72573;SDS011;60603;52.548;13.420;2023-06-14T01:05:24;5.78;;;3.13;;
72573;SDS011;60603;52.548;13.420;2023-06-14T01:11:00;5.53;;;2.83;;
72573;SDS011;60603;52.548;13.420;2023-06-14T01:13:33;5.82;;;3.05;;
72573;SDS011;60603;52.548;13.420;2023-06-14T01:16:00;5.25;;;3.15;;
72573;SDS011;60603;52.548;13.420;2023-06-14T01:18:27;5.25;;;2.90;;
72573;SDS011;60603;52.548;13.420;2023-06-14T01:20:55;5.95;;;3.08;;
72573;SDS011;60603;52.548;13.420;2023-06-14T01:23:21;5.97;;;3.03;;
72573;SDS011;60603;52.548;13.420;2023-06-14T01:25:48;6.93;;;3.00;;
72573;SDS011;60603;52.548;13.420;2023-06-14T01:28:18;7.43;;;3.22;;
72573;SDS011;60603;52.548;13.420;2023-06-14T01:30:46;10.25;;;3.42;;
72573;SDS011;60603;52.548;13.420;2023-06-14T01:33:19;5.95;;;2.80;;
72573;SDS011;60603;52.548;13.420;2023-06-14T01:35:49;7.07;;;3.63;;
72573;SDS011;60603;52.548;13.420;2023-06-14T01:38:17;7.13;;;3.15;;
72573;SDS011;60603;52.548;13.420;2023-06-14T01:40:45;6.05;;;3.20;;
72573;SDS011;60603;52.548;13.420;2023-06-14T01:43:14;6.80;;;3.05;;
72573;SDS011;60603;52.548;13.420;2023-06-14T01:45:41;8.20;;;3.17;;
72573;SDS011;60603;52.548;13.420;2023-06-14T01:48:08;6.53;;;3.25;;
72573;SDS011;60603;52.548;13.420;2023-06-14T01:50:35;7.55;;;3.35;;
72573;SDS011;60603;52.548;13.420;2023-06-14T01:53:00;8.65;;;4.20;;
72573;SDS011;60603;52.548;13.420;2023-06-14T01:55:26;6.43;;;4.07;;
72573;SDS011;60603;52.548;13.420;2023-06-14T01:57:52;6.18;;;3.05;;
72573;SDS011;60603;52.548;13.420;2023-06-14T02:00:19;6.72;;;3.55;;
72573;SDS011;60603;52.548;13.420;2023-06-14T02:02:45;6.97;;;3.30;;
72573;SDS011;60603;52.548;13.420;2023-06-14T02:05:11;8.85;;;4.50;;
72573;SDS011;60603;52.548;13.420;2023-06-14T02:07:37;8.45;;;4.18;;
72573;SDS011;60603;52.548;13.420;2023-06-14T02:10:03;6.88;;;3.58;;
72573;SDS011;60603;52.548;13.420;2023-06-14T02:12:29;6.03;;;3.13;;
72573;SDS011;60603;52.548;13.420;2023-06-14T02:14:55;7.68;;;3.70;;
72573;SDS011;60603;52.548;13.420;2023-06-14T02:17:22;5.90;;;3.40;;
72573;SDS011;60603;52.548;13.420;2023-06-14T02:19:48;6.80;;;3.53;;
72573;SDS011;60603;52.548;13.420;2023-06-14T02:22:14;6.40;;;3.70;;
72573;SDS011;60603;52.548;13.420;2023-06-14T02:24:41;7.60;;;3.85;;
72573;SDS011;60603;52.548;13.420;2023-06-14T02:27:07;10.23;;;4.47;;
72573;SDS011;60603;52.548;13.420;2023-06-14T02:29:33;8.57;;;4.20;;
72573;SDS011;60603;52.548;13.420;2023-06-14T02:31:59;8.75;;;4.43;;
72573;SDS011;60603;52.548;13.420;2023-06-14T02:34:25;8.35;;;4.22;;
72573;SDS011;60603;52.548;13.420;2023-06-14T02:36:50;12.00;;;4.47;;
72573;SDS011;60603;52.548;13.420;2023-06-14T02:39:18;8.45;;;3.90;;
72573;SDS011;60603;52.548;13.420;2023-06-14T02:41:46;7.25;;;3.90;;
72573;SDS011;60603;52.548;13.420;2023-06-14T02:44:13;6.68;;;3.63;;
72573;SDS011;60603;52.548;13.420;2023-06-14T02:46:40;6.15;;;3.28;;
72573;SDS011;60603;52.548;13.420;2023-06-14T02:49:06;8.27;;;3.67;;
72573;SDS011;60603;52.548;13.420;2023-06-14T02:51:32;5.63;;;3.55;;
72573;SDS011;60603;52.548;13.420;2023-06-14T02:53:58;7.25;;;3.83;;
72573;SDS011;60603;52.548;13.420;2023-06-14T02:56:23;7.68;;;3.72;;
72573;SDS011;60603;52.548;13.420;2023-06-14T02:58:51;6.45;;;3.67;;
72573;SDS011;60603;52.548;13.420;2023-06-14T03:01:16;8.07;;;3.95;;
72573;SDS011;60603;52.548;13.420;2023-06-14T03:03:43;7.55;;;3.90;;
72573;SDS011;60603;52.548;13.420;2023-06-14T03:06:08;6.30;;;3.42;;
72573;SDS011;60603;52.548;13.420;2023-06-14T03:08:38;11.77;;;3.75;;
72573;SDS011;60603;52.548;13.420;2023-06-14T03:11:04;9.80;;;3.55;;
72573;SDS011;60603;52.548;13.420;2023-06-14T03:13:36;6.90;;;4.05;;
72573;SDS011;60603;52.548;13.420;2023-06-14T03:16:02;10.38;;;4.13;;
72573;SDS011;60603;52.548;13.420;2023-06-14T03:18:31;9.60;;;4.00;;
72573;SDS011;60603;52.548;13.420;2023-06-14T03:21:01;7.68;;;5.05;;
72573;SDS011;60603;52.548;13.420;2023-06-14T03:23:28;9.38;;;4.30;;
72573;SDS011;60603;52.548;13.420;2023-06-14T03:25:53;8.20;;;3.92;;
72573;SDS011;60603;52.548;13.420;2023-06-14T03:28:19;8.95;;;4.28;;
72573;SDS011;60603;52.548;13.420;2023-06-14T03:30:45;7.78;;;4.60;;
72573;SDS011;60603;52.548;13.420;2023-06-14T03:33:11;8.88;;;4.53;;
72573;SDS011;60603;52.548;13.420;2023-06-14T03:35:36;7.50;;;4.50;;
72573;SDS011;60603;52.548;13.420;2023-06-14T03:38:02;8.27;;;4.25;;
72573;SDS011;60603;52.548;13.420;2023-06-14T03:40:29;9.45;;;4.35;;
72573;SDS011;60603;52.548;13.420;2023-06-14T03:42:54;11.25;;;4.85;;
72573;SDS011;60603;52.548;13.420;2023-06-14T03:45:20;8.05;;;4.68;;
72573;SDS011;60603;52.548;13.420;2023-06-14T03:47:46;7.45;;;4.55;;
72573;SDS011;60603;52.548;13.420;2023-06-14T03:50:12;7.25;;;3.67;;
72573;SDS011;60603;52.548;13.420;2023-06-14T03:52:38;8.90;;;3.97;;
72573;SDS011;60603;52.548;13.420;2023-06-14T03:55:03;8.68;;;4.18;;
72573;SDS011;60603;52.548;13.420;2023-06-14T03:57:30;9.25;;;4.70;;
72573;SDS011;60603;52.548;13.420;2023-06-14T03:59:56;6.88;;;4.13;;
72573;SDS011;60603;52.548;13.420;2023-06-14T04:02:22;8.02;;;4.35;;
72573;SDS011;60603;52.548;13.420;2023-06-14T04:04:47;7.93;;;4.00;;
72573;SDS011;60603;52.548;13.420;2023-06-14T04:07:14;7.82;;;4.30;;
72573;SDS011;60603;52.548;13.420;2023-06-14T04:09:40;9.90;;;4.22;;
72573;SDS011;60603;52.548;13.420;2023-06-14T04:12:07;7.75;;;4.00;;
72573;SDS011;60603;52.548;13.420;2023-06-14T04:14:37;8.00;;;4.40;;
72573;SDS011;60603;52.548;13.420;2023-06-14T04:17:03;9.63;;;3.83;;
72573;SDS011;60603;52.548;13.420;2023-06-14T04:19:29;8.13;;;4.05;;
72573;SDS011;60603;52.548;13.420;2023-06-14T04:21:55;9.77;;;4.32;;
72573;SDS011;60603;52.548;13.420;2023-06-14T04:24:20;8.55;;;3.85;;
72573;SDS011;60603;52.548;13.420;2023-06-14T04:26:46;5.90;;;3.63;;
72573;SDS011;60603;52.548;13.420;2023-06-14T04:29:17;13.00;;;5.18;;
72573;SDS011;60603;52.548;13.420;2023-06-14T04:31:45;8.60;;;4.00;;
72573;SDS011;60603;52.548;13.420;2023-06-14T04:34:11;9.15;;;4.15;;
72573;SDS011;60603;52.548;13.420;2023-06-14T04:36:47;8.80;;;4.00;;
72573;SDS011;60603;52.548;13.420;2023-06-14T04:39:18;9.15;;;4.18;;
72573;SDS011;60603;52.548;13.420;2023-06-14T04:41:45;10.98;;;4.60;;
72573;SDS011;60603;52.548;13.420;2023-06-14T04:44:12;7.95;;;4.35;;
72573;SDS011;60603;52.548;13.420;2023-06-14T04:46:38;7.47;;;4.45;;
72573;SDS011;60603;52.548;13.420;2023-06-14T04:49:14;9.55;;;4.78;;
72573;SDS011;60603;52.548;13.420;2023-06-14T04:51:44;8.15;;;4.65;;
72573;SDS011;60603;52.548;13.420;2023-06-14T04:54:11;13.88;;;4.60;;
72573;SDS011;60603;52.548;13.420;2023-06-14T04:56:39;10.63;;;4.80;;
72573;SDS011;60603;52.548;13.420;2023-06-14T04:59:05;8.63;;;4.75;;
72573;SDS011;60603;52.548;13.420;2023-06-14T05:01:31;7.57;;;4.22;;
72573;SDS011;60603;52.548;13.420;2023-06-14T05:03:58;7.53;;;4.43;;
72573;SDS011;60603;52.548;13.420;2023-06-14T05:06:24;7.78;;;4.50;;
72573;SDS011;60603;52.548;13.420;2023-06-14T05:08:52;8.85;;;4.38;;
72573;SDS011;60603;52.548;13.420;2023-06-14T05:11:19;8.10;;;4.10;;
72573;SDS011;60603;52.548;13.420;2023-06-14T05:13:45;8.00;;;4.63;;
72573;SDS011;60603;52.548;13.420;2023-06-14T05:16:11;9.45;;;4.57;;
72573;SDS011;60603;52.548;13.420;2023-06-14T05:18:36;8.85;;;5.07;;
72573;SDS011;60603;52.548;13.420;2023-06-14T05:21:03;7.78;;;5.03;;
72573;SDS011;60603;52.548;13.420;2023-06-14T05:23:32;11.38;;;5.50;;
72573;SDS011;60603;52.548;13.420;2023-06-14T05:25:58;7.70;;;4.85;;
72573;SDS011;60603;52.548;13.420;2023-06-14T05:28:23;9.13;;;5.75;;
72573;SDS011;60603;52.548;13.420;2023-06-14T05:30:49;9.60;;;5.53;;
72573;SDS011;60603;52.548;13.420;2023-06-14T05:33:16;9.25;;;5.22;;
72573;SDS011;60603;52.548;13.420;2023-06-14T05:35:42;9.82;;;5.35;;
72573;SDS011;60603;52.548;13.420;2023-06-14T05:38:07;9.50;;;5.18;;
72573;SDS011;60603;52.548;13.420;2023-06-14T05:40:33;12.77;;;5.00;;
72573;SDS011;60603;52.548;13.420;2023-06-14T05:42:59;8.57;;;5.22;;
72573;SDS011;60603;52.548;13.420;2023-06-14T05:45:25;10.50;;;5.53;;
72573;SDS011;60603;52.548;13.420;2023-06-14T05:47:50;11.50;;;5.53;;
72573;SDS011;60603;52.548;13.420;2023-06-14T05:50:16;8.13;;;5.15;;
72573;SDS011;60603;52.548;13.420;2023-06-14T05:52:42;8.35;;;4.85;;
72573;SDS011;60603;52.548;13.420;2023-06-14T05:55:08;12.57;;;5.40;;
72573;SDS011;60603;52.548;13.420;2023-06-14T05:57:34;12.27;;;4.72;;
72573;SDS011;60603;52.548;13.420;2023-06-14T06:00:01;7.72;;;4.68;;
72573;SDS011;60603;52.548;13.420;2023-06-14T06:02:31;9.82;;;5.05;;
72573;SDS011;60603;52.548;13.420;2023-06-14T06:04:57;12.02;;;4.82;;
72573;SDS011;60603;52.548;13.420;2023-06-14T06:07:22;9.48;;;4.40;;
72573;SDS011;60603;52.548;13.420;2023-06-14T06:09:48;12.00;;;4.85;;
72573;SDS011;60603;52.548;13.420;2023-06-14T06:12:14;9.68;;;5.05;;
72573;SDS011;60603;52.548;13.420;2023-06-14T06:14:40;11.68;;;5.22;;
72573;SDS011;60603;52.548;13.420;2023-06-14T06:17:06;9.70;;;4.45;;
72573;SDS011;60603;52.548;13.420;2023-06-14T06:19:32;7.85;;;4.35;;
72573;SDS011;60603;52.548;13.420;2023-06-14T06:21:57;7.40;;;4.75;;
72573;SDS011;60603;52.548;13.420;2023-06-14T06:24:23;8.93;;;4.00;;
72573;SDS011;60603;52.548;13.420;2023-06-14T06:26:48;9.30;;;4.82;;
72573;SDS011;60603;52.548;13.420;2023-06-14T06:29:14;8.27;;;4.38;;
72573;SDS011;60603;52.548;13.420;2023-06-14T06:31:40;11.18;;;4.53;;
72573;SDS011;60603;52.548;13.420;2023-06-14T06:34:06;7.80;;;4.40;;
72573;SDS011;60603;52.548;13.420;2023-06-14T06:36:31;8.20;;;4.30;;
72573;SDS011;60603;52.548;13.420;2023-06-14T06:38:57;9.27;;;4.38;;
72573;SDS011;60603;52.548;13.420;2023-06-14T06:41:23;11.25;;;4.65;;
72573;SDS011;60603;52.548;13.420;2023-06-14T06:43:49;7.72;;;3.97;;
72573;SDS011;60603;52.548;13.420;2023-06-14T06:46:14;7.50;;;4.03;;
72573;SDS011;60603;52.548;13.420;2023-06-14T06:48:40;8.40;;;4.57;;
72573;SDS011;60603;52.548;13.420;2023-06-14T06:51:06;9.95;;;4.20;;
72573;SDS011;60603;52.548;13.420;2023-06-14T06:53:31;7.88;;;4.15;;
72573;SDS011;60603;52.548;13.420;2023-06-14T06:55:57;7.95;;;4.03;;
72573;SDS011;60603;52.548;13.420;2023-06-14T07:02:04;10.93;;;4.55;;
72573;SDS011;60603;52.548;13.420;2023-06-14T07:04:30;16.00;;;4.70;;
72573;SDS011;60603;52.548;13.420;2023-06-14T07:06:56;9.45;;;4.10;;
72573;SDS011;60603;52.548;13.420;2023-06-14T07:09:22;8.80;;;3.70;;
72573;SDS011;60603;52.548;13.420;2023-06-14T07:11:48;10.02;;;4.03;;
72573;SDS011;60603;52.548;13.420;2023-06-14T07:14:13;7.05;;;4.28;;
72573;SDS011;60603;52.548;13.420;2023-06-14T07:16:39;9.45;;;4.25;;
72573;SDS011;60603;52.548;13.420;2023-06-14T07:19:06;11.02;;;4.03;;
72573;SDS011;60603;52.548;13.420;2023-06-14T07:21:32;8.98;;;4.18;;
72573;SDS011;60603;52.548;13.420;2023-06-14T07:23:57;12.27;;;4.20;;
72573;SDS011;60603;52.548;13.420;2023-06-14T07:26:23;9.75;;;4.35;;
72573;SDS011;60603;52.548;13.420;2023-06-14T07:28:49;11.57;;;4.30;;
72573;SDS011;60603;52.548;13.420;2023-06-14T07:31:15;7.40;;;3.83;;
72573;SDS011;60603;52.548;13.420;2023-06-14T07:33:41;9.68;;;3.80;;
72573;SDS011;60603;52.548;13.420;2023-06-14T07:36:07;8.90;;;4.10;;
72573;SDS011;60603;52.548;13.420;2023-06-14T07:38:33;7.90;;;3.95;;
72573;SDS011;60603;52.548;13.420;2023-06-14T07:40:59;7.40;;;4.07;;
72573;SDS011;60603;52.548;13.420;2023-06-14T07:43:26;9.50;;;3.92;;
72573;SDS011;60603;52.548;13.420;2023-06-14T07:45:51;8.38;;;3.80;;
72573;SDS011;60603;52.548;13.420;2023-06-14T07:48:17;11.70;;;3.53;;
72573;SDS011;60603;52.548;13.420;2023-06-14T07:50:43;7.30;;;3.83;;
72573;SDS011;60603;52.548;13.420;2023-06-14T07:53:09;7.90;;;3.97;;
72573;SDS011;60603;52.548;13.420;2023-06-14T07:55:35;7.93;;;3.92;;
72573;SDS011;60603;52.548;13.420;2023-06-14T07:58:03;8.40;;;3.97;;
72573;SDS011;60603;52.548;13.420;2023-06-14T08:00:28;9.02;;;3.97;;
72573;SDS011;60603;52.548;13.420;2023-06-14T08:02:55;8.10;;;3.72;;
72573;SDS011;60603;52.548;13.420;2023-06-14T08:05:24;7.90;;;3.60;;
72573;SDS011;60603;52.548;13.420;2023-06-14T08:07:51;9.35;;;4.30;;
72573;SDS011;60603;52.548;13.420;2023-06-14T08:10:17;7.30;;;3.75;;
72573;SDS011;60603;52.548;13.420;2023-06-14T08:12:43;9.77;;;4.05;;
72573;SDS011;60603;52.548;13.420;2023-06-14T08:15:09;7.03;;;4.13;;
72573;SDS011;60603;52.548;13.420;2023-06-14T08:17:35;6.65;;;3.70;;
72573;SDS011;60603;52.548;13.420;2023-06-14T08:20:01;8.85;;;3.30;;
72573;SDS011;60603;52.548;13.420;2023-06-14T08:22:30;8.00;;;3.42;;
72573;SDS011;60603;52.548;13.420;2023-06-14T08:24:57;8.57;;;3.83;;
72573;SDS011;60603;52.548;13.420;2023-06-14T08:27:23;7.63;;;3.80;;
72573;SDS011;60603;52.548;13.420;2023-06-14T08:29:50;5.82;;;3.47;;
72573;SDS011;60603;52.548;13.420;2023-06-14T08:32:16;10.68;;;3.80;;
72573;SDS011;60603;52.548;13.420;2023-06-14T08:34:41;14.02;;;4.15;;
72573;SDS011;60603;52.548;13.420;2023-06-14T08:37:07;6.82;;;3.35;;
72573;SDS011;60603;52.548;13.420;2023-06-14T08:39:33;9.43;;;3.63;;
72573;SDS011;60603;52.548;13.420;2023-06-14T08:41:58;7.50;;;3.28;;
72573;SDS011;60603;52.548;13.420;2023-06-14T08:44:26;9.48;;;3.53;;
72573;SDS011;60603;52.548;13.420;2023-06-14T08:46:52;7.07;;;3.17;;
72573;SDS011;60603;52.548;13.420;2023-06-14T08:49:22;7.03;;;2.97;;
72573;SDS011;60603;52.548;13.420;2023-06-14T08:51:49;8.50;;;3.30;;
72573;SDS011;60603;52.548;13.420;2023-06-14T08:54:27;14.05;;;3.30;;
72573;SDS011;60603;52.548;13.420;2023-06-14T08:56:58;6.15;;;2.80;;
72573;SDS011;60603;52.548;13.420;2023-06-14T08:59:27;6.93;;;2.90;;
72573;SDS011;60603;52.548;13.420;2023-06-14T09:01:53;7.07;;;3.55;;
72573;SDS011;60603;52.548;13.420;2023-06-14T09:04:25;9.43;;;3.17;;
72573;SDS011;60603;52.548;13.420;2023-06-14T09:06:55;5.50;;;2.40;;
72573;SDS011;60603;52.548;13.420;2023-06-14T09:09:21;7.88;;;3.08;;
72573;SDS011;60603;52.548;13.420;2023-06-14T09:11:51;5.35;;;2.60;;
72573;SDS011;60603;52.548;13.420;2023-06-14T09:14:18;7.03;;;3.20;;
72573;SDS011;60603;52.548;13.420;2023-06-14T09:16:44;7.03;;;3.35;;
72573;SDS011;60603;52.548;13.420;2023-06-14T09:19:13;7.28;;;2.83;;
72573;SDS011;60603;52.548;13.420;2023-06-14T09:21:47;7.13;;;2.88;;
72573;SDS011;60603;52.548;13.420;2023-06-14T09:24:13;10.70;;;3.50;;
72573;SDS011;60603;52.548;13.420;2023-06-14T09:26:40;8.57;;;3.10;;
72573;SDS011;60603;52.548;13.420;2023-06-14T09:29:06;5.85;;;2.97;;
72573;SDS011;60603;52.548;13.420;2023-06-14T09:31:32;6.50;;;3.50;;
72573;SDS011;60603;52.548;13.420;2023-06-14T09:33:58;7.55;;;3.20;;
72573;SDS011;60603;52.548;13.420;2023-06-14T09:36:24;9.30;;;3.30;;
72573;SDS011;60603;52.548;13.420;2023-06-14T09:38:51;7.75;;;3.38;;
72573;SDS011;60603;52.548;13.420;2023-06-14T09:41:18;8.57;;;3.13;;
72573;SDS011;60603;52.548;13.420;2023-06-14T09:43:43;6.93;;;3.33;;
72573;SDS011;60603;52.548;13.420;2023-06-14T09:46:11;8.18;;;2.97;;
72573;SDS011;60603;52.548;13.420;2023-06-14T09:48:36;10.25;;;3.13;;
72573;SDS011;60603;52.548;13.420;2023-06-14T09:51:02;6.75;;;3.03;;
72573;SDS011;60603;52.548;13.420;2023-06-14T09:53:29;5.70;;;2.58;;
72573;SDS011;60603;52.548;13.420;2023-06-14T09:55:56;7.20;;;2.90;;
72573;SDS011;60603;52.548;13.420;2023-06-14T09:58:23;8.10;;;3.58;;
72573;SDS011;60603;52.548;13.420;2023-06-14T10:00:51;8.10;;;2.72;;
72573;SDS011;60603;52.548;13.420;2023-06-14T10:03:20;8.48;;;3.08;;
72573;SDS011;60603;52.548;13.420;2023-06-14T10:05:48;6.75;;;2.85;;
72573;SDS011;60603;52.548;13.420;2023-06-14T10:08:16;10.05;;;3.03;;
72573;SDS011;60603;52.548;13.420;2023-06-14T10:10:44;6.40;;;2.85;;
72573;SDS011;60603;52.548;13.420;2023-06-14T10:13:10;7.15;;;2.60;;
72573;SDS011;60603;52.548;13.420;2023-06-14T10:18:19;5.25;;;3.20;;
72573;SDS011;60603;52.548;13.420;2023-06-14T10:23:25;7.82;;;3.20;;
72573;SDS011;60603;52.548;13.420;2023-06-14T10:25:59;5.53;;;3.05;;
72573;SDS011;60603;52.548;13.420;2023-06-14T10:28:25;8.30;;;3.03;;
72573;SDS011;60603;52.548;13.420;2023-06-14T10:31:01;5.72;;;2.95;;
72573;SDS011;60603;52.548;13.420;2023-06-14T10:33:50;8.70;;;3.58;;
72573;SDS011;60603;52.548;13.420;2023-06-14T10:36:28;6.43;;;2.97;;
72573;SDS011;60603;52.548;13.420;2023-06-14T10:39:00;8.63;;;3.33;;
72573;SDS011;60603;52.548;13.420;2023-06-14T10:41:28;8.35;;;3.30;;
72573;SDS011;60603;52.548;13.420;2023-06-14T10:46:45;7.90;;;3.65;;
72573;SDS011;60603;52.548;13.420;2023-06-14T10:49:11;6.93;;;3.00;;
72573;SDS011;60603;52.548;13.420;2023-06-14T10:51:38;8.65;;;3.63;;
72573;SDS011;60603;52.548;13.420;2023-06-14T10:54:14;8.55;;;3.40;;
72573;SDS011;60603;52.548;13.420;2023-06-14T10:59:13;8.05;;;2.88;;
72573;SDS011;60603;52.548;13.420;2023-06-14T11:04:34;7.65;;;3.42;;
72573;SDS011;60603;52.548;13.420;2023-06-14T11:07:55;9.75;;;3.15;;
72573;SDS011;60603;52.548;13.420;2023-06-14T11:10:25;6.53;;;3.20;;
72573;SDS011;60603;52.548;13.420;2023-06-14T11:12:58;8.57;;;3.03;;
72573;SDS011;60603;52.548;13.420;2023-06-14T11:15:28;8.23;;;3.38;;
72573;SDS011;60603;52.548;13.420;2023-06-14T11:17:54;7.80;;;3.50;;
72573;SDS011;60603;52.548;13.420;2023-06-14T11:20:24;8.63;;;3.17;;
72573;SDS011;60603;52.548;13.420;2023-06-14T11:22:51;8.88;;;3.05;;
72573;SDS011;60603;52.548;13.420;2023-06-14T11:25:17;13.68;;;3.17;;
72573;SDS011;60603;52.548;13.420;2023-06-14T11:27:43;6.82;;;3.03;;
72573;SDS011;60603;52.548;13.420;2023-06-14T11:30:09;13.85;;;3.58;;
72573;SDS011;60603;52.548;13.420;2023-06-14T11:32:36;6.35;;;2.70;;
72573;SDS011;60603;52.548;13.420;2023-06-14T11:35:03;7.00;;;2.60;;
72573;SDS011;60603;52.548;13.420;2023-06-14T11:37:31;9.00;;;2.80;;
72573;SDS011;60603;52.548;13.420;2023-06-14T11:42:26;4.78;;;2.60;;
72573;SDS011;60603;52.548;13.420;2023-06-14T11:44:53;9.35;;;3.35;;
72573;SDS011;60603;52.548;13.420;2023-06-14T11:47:19;6.00;;;3.00;;
72573;SDS011;60603;52.548;13.420;2023-06-14T11:49:45;5.90;;;2.58;;
72573;SDS011;60603;52.548;13.420;2023-06-14T11:52:11;5.57;;;3.00;;
72573;SDS011;60603;52.548;13.420;2023-06-14T11:54:37;6.95;;;3.28;;
72573;SDS011;60603;52.548;13.420;2023-06-14T11:57:05;8.18;;;3.28;;
72573;SDS011;60603;52.548;13.420;2023-06-14T11:59:32;7.68;;;2.70;;
72573;SDS011;60603;52.548;13.420;2023-06-14T12:01:58;8.25;;;2.92;;
72573;SDS011;60603;52.548;13.420;2023-06-14T12:04:24;5.18;;;2.78;;
72573;SDS011;60603;52.548;13.420;2023-06-14T12:06:50;7.07;;;3.15;;
72573;SDS011;60603;52.548;13.420;2023-06-14T12:09:18;7.65;;;2.92;;
72573;SDS011;60603;52.548;13.420;2023-06-14T12:11:45;8.07;;;3.00;;
72573;SDS011;60603;52.548;13.420;2023-06-14T12:14:10;7.03;;;2.63;;
72573;SDS011;60603;52.548;13.420;2023-06-14T12:16:38;6.40;;;2.70;;
72573;SDS011;60603;52.548;13.420;2023-06-14T12:19:25;6.82;;;2.65;;
72573;SDS011;60603;52.548;13.420;2023-06-14T12:21:51;5.78;;;2.83;;
72573;SDS011;60603;52.548;13.420;2023-06-14T12:24:17;8.48;;;3.03;;
72573;SDS011;60603;52.548;13.420;2023-06-14T12:26:43;5.45;;;2.42;;
72573;SDS011;60603;52.548;13.420;2023-06-14T12:29:08;9.68;;;3.58;;
72573;SDS011;60603;52.548;13.420;2023-06-14T12:31:35;5.68;;;2.78;;
72573;SDS011;60603;52.548;13.420;2023-06-14T12:34:01;9.23;;;2.97;;
72573;SDS011;60603;52.548;13.420;2023-06-14T12:36:27;9.77;;;3.30;;
72573;SDS011;60603;52.548;13.420;2023-06-14T12:38:52;7.38;;;2.90;;
72573;SDS011;60603;52.548;13.420;2023-06-14T12:41:20;7.07;;;2.53;;
72573;SDS011;60603;52.548;13.420;2023-06-14T12:43:49;6.60;;;2.95;;
72573;SDS011;60603;52.548;13.420;2023-06-14T12:46:15;9.77;;;3.10;;
72573;SDS011;60603;52.548;13.420;2023-06-14T12:48:41;7.78;;;2.63;;
72573;SDS011;60603;52.548;13.420;2023-06-14T12:51:06;9.05;;;2.72;;
72573;SDS011;60603;52.548;13.420;2023-06-14T12:53:32;6.40;;;2.60;;
72573;SDS011;60603;52.548;13.420;2023-06-14T12:55:58;7.97;;;3.20;;
72573;SDS011;60603;52.548;13.420;2023-06-14T12:58:23;8.68;;;2.63;;
72573;SDS011;60603;52.548;13.420;2023-06-14T13:00:49;6.57;;;2.83;;
72573;SDS011;60603;52.548;13.420;2023-06-14T13:03:15;4.95;;;2.17;;
72573;SDS011;60603;52.548;13.420;2023-06-14T13:05:41;6.30;;;2.72;;
72573;SDS011;60603;52.548;13.420;2023-06-14T13:08:08;6.53;;;2.83;;
72573;SDS011;60603;52.548;13.420;2023-06-14T13:10:34;6.07;;;2.50;;
72573;SDS011;60603;52.548;13.420;2023-06-14T13:13:00;12.48;;;3.15;;
72573;SDS011;60603;52.548;13.420;2023-06-14T13:15:26;7.28;;;2.92;;
72573;SDS011;60603;52.548;13.420;2023-06-14T13:17:52;6.20;;;2.95;;
72573;SDS011;60603;52.548;13.420;2023-06-14T13:20:18;10.27;;;3.15;;
72573;SDS011;60603;52.548;13.420;2023-06-14T13:22:43;7.30;;;2.78;;
72573;SDS011;60603;52.548;13.420;2023-06-14T13:25:10;9.48;;;2.70;;
72573;SDS011;60603;52.548;13.420;2023-06-14T13:27:35;10.20;;;3.22;;
72573;SDS011;60603;52.548;13.420;2023-06-14T13:30:02;8.35;;;2.58;;
72573;SDS011;60603;52.548;13.420;2023-06-14T13:32:28;6.15;;;2.88;;
72573;SDS011;60603;52.548;13.420;2023-06-14T13:34:54;9.48;;;2.83;;
72573;SDS011;60603;52.548;13.420;2023-06-14T13:37:20;8.98;;;2.58;;
72573;SDS011;60603;52.548;13.420;2023-06-14T13:39:45;7.15;;;2.45;;
72573;SDS011;60603;52.548;13.420;2023-06-14T13:42:11;5.50;;;2.53;;
72573;SDS011;60603;52.548;13.420;2023-06-14T13:44:37;10.82;;;2.65;;
72573;SDS011;60603;52.548;13.420;2023-06-14T13:47:03;5.90;;;2.63;;
72573;SDS011;60603;52.548;13.420;2023-06-14T13:49:29;4.82;;;2.50;;
72573;SDS011;60603;52.548;13.420;2023-06-14T13:51:54;10.05;;;3.33;;
72573;SDS011;60603;52.548;13.420;2023-06-14T13:54:20;7.10;;;3.13;;
72573;SDS011;60603;52.548;13.420;2023-06-14T13:56:46;8.27;;;3.00;;
72573;SDS011;60603;52.548;13.420;2023-06-14T13:59:12;4.88;;;2.60;;
72573;SDS011;60603;52.548;13.420;2023-06-14T14:01:38;7.93;;;2.72;;
72573;SDS011;60603;52.548;13.420;2023-06-14T14:04:04;6.35;;;2.88;;
72573;SDS011;60603;52.548;13.420;2023-06-14T14:06:30;6.72;;;2.70;;
72573;SDS011;60603;52.548;13.420;2023-06-14T14:08:56;8.98;;;2.60;;
72573;SDS011;60603;52.548;13.420;2023-06-14T14:11:22;8.32;;;3.00;;
72573;SDS011;60603;52.548;13.420;2023-06-14T14:13:48;5.50;;;2.70;;
72573;SDS011;60603;52.548;13.420;2023-06-14T14:16:14;6.85;;;2.75;;
72573;SDS011;60603;52.548;13.420;2023-06-14T14:18:43;11.32;;;2.53;;
72573;SDS011;60603;52.548;13.420;2023-06-14T14:21:08;12.15;;;2.60;;
72573;SDS011;60603;52.548;13.420;2023-06-14T14:23:35;6.68;;;2.88;;
72573;SDS011;60603;52.548;13.420;2023-06-14T14:26:00;6.70;;;2.80;;
72573;SDS011;60603;52.548;13.420;2023-06-14T14:28:29;6.90;;;3.17;;
72573;SDS011;60603;52.548;13.420;2023-06-14T14:30:55;8.07;;;2.80;;
72573;SDS011;60603;52.548;13.420;2023-06-14T14:33:21;11.25;;;2.83;;
72573;SDS011;60603;52.548;13.420;2023-06-14T14:35:47;7.93;;;2.58;;
72573;SDS011;60603;52.548;13.420;2023-06-14T14:38:13;6.90;;;3.25;;
72573;SDS011;60603;52.548;13.420;2023-06-14T14:40:41;7.32;;;3.13;;
72573;SDS011;60603;52.548;13.420;2023-06-14T14:43:07;6.53;;;2.47;;
72573;SDS011;60603;52.548;13.420;2023-06-14T14:45:33;5.90;;;2.85;;
72573;SDS011;60603;52.548;13.420;2023-06-14T14:48:00;6.75;;;2.80;;
72573;SDS011;60603;52.548;13.420;2023-06-14T14:50:26;5.75;;;2.50;;
72573;SDS011;60603;52.548;13.420;2023-06-14T14:52:52;6.32;;;2.70;;
72573;SDS011;60603;52.548;13.420;2023-06-14T14:55:17;7.70;;;2.58;;